Littorina — DLMG — position and weather

sailwx.info

Track history (hours):
 
Tides and Currents Weather Stations Pressure Air Temp Water Temp Dewpoint Dewpoint Depression Visibility Wind Speed Wind Dir Waves Ship Positions

Oceanographic research ship Littorina (Germany)

Detailed information on ship capabilities available from University of Delaware's Ocean Information Center.

Last reported at 2019-Sep-21 16:51 UTC. Time now 2019-Sep-21 17:13 UTC.
Position N 54°20' E 010°11'.

Length 30 m; draft 2.9 m.

Type: Dredging. MMSI: 211214250.

Date/timePositionNaut miles runAvg speedWind from/ knotsBaromVisibWave heightAir tempDewpointWater temp
2019-Sep-21 16:51N 54°20' E 010°11'0 0.0
2019-Sep-21 16:30N 54°20' E 010°11'0 0.0
2019-Sep-21 16:00N 54°20' E 010°11'0 0.0
2019-Sep-21 15:27N 54°20' E 010°11'0 0.0
2019-Sep-21 15:00N 54°20' E 010°11'0 0.0
2019-Sep-21 14:30N 54°20' E 010°11'0 0.0
2019-Sep-21 14:00N 54°20' E 010°11'0 0.0
2019-Sep-21 13:30N 54°20' E 010°11'0 0.0
2019-Sep-21 13:00N 54°20' E 010°11'0 0.0
2019-Sep-21 12:30N 54°20' E 010°11'0 0.0
2019-Sep-21 12:00N 54°20' E 010°11'0 0.0
2019-Sep-21 11:27N 54°20' E 010°11'0 0.0
2019-Sep-21 11:00N 54°20' E 010°11'0 0.0
2019-Sep-21 10:30N 54°20' E 010°11'0 0.0
2019-Sep-21 09:57N 54°20' E 010°11'0 0.0
2019-Sep-21 09:30N 54°20' E 010°11'0 0.0
2019-Sep-21 09:00N 54°20' E 010°11'0 0.0
2019-Sep-21 08:30N 54°20' E 010°11'0 0.0
2019-Sep-21 08:00N 54°20' E 010°11'0 0.0
2019-Sep-21 07:30N 54°20' E 010°11'0 0.0
2019-Sep-21 07:00N 54°20' E 010°11'0 0.0
2019-Sep-21 06:30N 54°20' E 010°11'0 0.0
2019-Sep-21 06:00N 54°20' E 010°11'0 0.0
2019-Sep-21 05:30N 54°20' E 010°11'0 0.0
2019-Sep-21 05:00N 54°20' E 010°11'1 2.2
2019-Sep-21 04:30N 54°21' E 010°10'4 7.0
2019-Sep-21 04:00N 54°24' E 010°12'4 7.5
2019-Sep-21 03:30N 54°27' E 010°17'6 9.0
2019-Sep-21 02:51N 54°26' E 010°26'4 9.5
2019-Sep-21 02:24N 54°26' E 010°34'11 9.5
2019-Sep-21 01:17N 54°25' E 010°52'6 9.3
2019-Sep-21 00:40N 54°24' E 011°02'3 8.1
2019-Sep-21 00:18N 54°24' E 011°07'3 4.9
2019-Sep-20 23:47N 54°23' E 011°10'5 7.6
2019-Sep-20 23:08N 54°23' E 011°19'15 9.5
2019-Sep-20 21:31N 54°22' E 011°45'0 9.9
2019-Sep-20 21:30N 54°22' E 011°46'4 8.4
2019-Sep-20 21:00N 54°22' E 011°53'7 9.1
2019-Sep-20 20:17N 54°22' E 012°04'3 9.2
2019-Sep-20 19:59N 54°23' E 012°09'6 9.0
2019-Sep-20 19:17N 54°26' E 012°18'4 9.4
2019-Sep-20 18:53N 54°28' E 012°24'  
2019-Sep-14 16:00N 54°33' E 012°42'5 9.7
2019-Sep-14 15:30N 54°31' E 012°35'510.0
2019-Sep-14 15:00N 54°29' E 012°27'1510.3
2019-Sep-14 13:35N 54°22' E 012°04'110.4
2019-Sep-14 13:30N 54°22' E 012°03'611.0
2019-Sep-14 13:00N 54°23' E 011°53'41 9.7
2019-Sep-14 08:47N 54°26' E 010°43'3 9.7
2019-Sep-14 08:30N 54°27' E 010°39'5 9.7
2019-Sep-14 08:00N 54°28' E 010°31'5 9.1
2019-Sep-14 07:30N 54°28' E 010°23'5 9.6
2019-Sep-14 07:00N 54°26' E 010°15'5 9.3
2019-Sep-14 06:30N 54°22' E 010°11'3 5.3
2019-Sep-14 06:00N 54°20' E 010°11'0 0.0
2019-Sep-14 05:30N 54°20' E 010°11'0 0.0
2019-Sep-14 05:00N 54°20' E 010°11'0 0.0
2019-Sep-14 04:30N 54°20' E 010°11'0 0.0
2019-Sep-14 04:00N 54°20' E 010°11'0 0.0
2019-Sep-14 03:30N 54°20' E 010°11'0 0.0
2019-Sep-14 03:00N 54°20' E 010°11'0 0.0
2019-Sep-14 02:30N 54°20' E 010°11'0 0.0
2019-Sep-14 02:00N 54°20' E 010°11'0 0.0
2019-Sep-14 01:30N 54°20' E 010°11'0 0.0
2019-Sep-14 00:57N 54°20' E 010°11'0 0.0
2019-Sep-14 00:30N 54°20' E 010°11'0 0.0
2019-Sep-14 00:00N 54°20' E 010°11'0 0.0
2019-Sep-13 23:30N 54°20' E 010°11'0 0.0
2019-Sep-13 23:00N 54°20' E 010°11'0 0.0
2019-Sep-13 22:30N 54°20' E 010°11'0 0.0
2019-Sep-13 22:00N 54°20' E 010°11'0 0.0
2019-Sep-13 21:30N 54°20' E 010°11'0 0.0
2019-Sep-13 21:00N 54°20' E 010°11'0 0.0
2019-Sep-13 20:30N 54°20' E 010°11'0 0.0
2019-Sep-13 20:00N 54°20' E 010°11'0 0.0
2019-Sep-13 19:30N 54°20' E 010°11'0 0.0
2019-Sep-13 19:00N 54°20' E 010°11'0 0.0
2019-Sep-13 18:30N 54°20' E 010°11'0 0.0
2019-Sep-13 18:00N 54°20' E 010°11'0 0.0
2019-Sep-13 17:30N 54°20' E 010°11'0 0.0
2019-Sep-13 17:00N 54°20' E 010°11'0 0.0
2019-Sep-13 16:30N 54°20' E 010°11'0 0.0
2019-Sep-13 16:00N 54°20' E 010°11'0 0.0
2019-Sep-13 15:30N 54°20' E 010°11'0 0.0
2019-Sep-13 15:00N 54°20' E 010°11'0 0.0
2019-Sep-13 14:30N 54°20' E 010°11'0 0.0
2019-Sep-13 14:00N 54°20' E 010°11'0 0.0
2019-Sep-13 13:30N 54°20' E 010°11'0 0.0
2019-Sep-13 12:57N 54°20' E 010°11'0 0.0
2019-Sep-13 12:30N 54°20' E 010°11'0 0.0
2019-Sep-13 11:57N 54°20' E 010°11'0 0.0
2019-Sep-13 11:30N 54°20' E 010°11'0 0.0
2019-Sep-13 11:00N 54°20' E 010°11'0 0.0
2019-Sep-13 10:30N 54°20' E 010°11'0 0.0
2019-Sep-13 09:51N 54°20' E 010°11'0 0.0
2019-Sep-13 09:30N 54°20' E 010°11'0 0.0
2019-Sep-13 09:00N 54°20' E 010°11'0 0.0
2019-Sep-13 08:30N 54°20' E 010°11'0 0.0
2019-Sep-13 08:00N 54°20' E 010°11'0 0.0
2019-Sep-13 07:30N 54°20' E 010°11'1 2.7
2019-Sep-13 07:01N 54°21' E 010°10'1 2.0
2019-Sep-13 06:29N 54°22' E 010°09'0 0.0
2019-Sep-13 05:59N 54°22' E 010°09'2 4.6
2019-Sep-13 05:30N 54°20' E 010°10'0 0.5
2019-Sep-13 04:59N 54°20' E 010°11'0 0.0
2019-Sep-13 04:29N 54°20' E 010°11'0 0.0
2019-Sep-13 03:59N 54°20' E 010°11'0 0.0
2019-Sep-13 03:29N 54°20' E 010°11'0 0.0
2019-Sep-13 02:59N 54°20' E 010°11'0 0.0
2019-Sep-13 01:59N 54°20' E 010°11'0 0.0
2019-Sep-13 01:29N 54°20' E 010°11'0 0.0
2019-Sep-13 00:59N 54°20' E 010°11'0 0.0
2019-Sep-13 00:29N 54°20' E 010°11'0 0.0
2019-Sep-12 23:59N 54°20' E 010°11'0 0.0
2019-Sep-12 23:26N 54°20' E 010°11'0 0.0
2019-Sep-12 22:59N 54°20' E 010°11'0 0.0
2019-Sep-12 22:29N 54°20' E 010°11'0 0.0
2019-Sep-12 21:59N 54°20' E 010°11'0 0.0
2019-Sep-12 21:29N 54°20' E 010°11'0 0.0
2019-Sep-12 20:59N 54°20' E 010°11'0 0.0
2019-Sep-12 20:29N 54°20' E 010°11'0 0.0
2019-Sep-12 19:59N 54°20' E 010°11'0 0.0
2019-Sep-12 19:29N 54°20' E 010°11'0 0.0
2019-Sep-12 18:59N 54°20' E 010°11'0 0.0
2019-Sep-12 18:29N 54°20' E 010°11'0 0.0
2019-Sep-12 17:59N 54°20' E 010°11'0 0.0
2019-Sep-12 17:29N 54°20' E 010°11'0 0.0
2019-Sep-12 16:56N 54°20' E 010°11'0 0.0
2019-Sep-12 16:29N 54°20' E 010°11'0 0.0
2019-Sep-12 15:59N 54°20' E 010°11'0 0.0
2019-Sep-12 15:29N 54°20' E 010°11'0 0.0
2019-Sep-12 14:59N 54°20' E 010°11'0 0.0
2019-Sep-12 14:29N 54°20' E 010°11'0 0.0
2019-Sep-12 13:59N 54°20' E 010°11'0 0.0
2019-Sep-12 13:29N 54°20' E 010°11'0 0.0
2019-Sep-12 12:59N 54°20' E 010°11'0 0.0
2019-Sep-12 12:29N 54°20' E 010°11'0 0.0
2019-Sep-12 11:59N 54°20' E 010°11'0 0.0
2019-Sep-12 11:29N 54°20' E 010°11'0 0.0
2019-Sep-12 10:59N 54°20' E 010°11'0 0.0
2019-Sep-12 10:29N 54°20' E 010°11'0 0.0
2019-Sep-12 09:59N 54°20' E 010°11'0 0.0
2019-Sep-12 09:29N 54°20' E 010°11'0 0.0
2019-Sep-12 08:59N 54°20' E 010°11'0 0.0
2019-Sep-12 08:29N 54°20' E 010°11'0 0.0
2019-Sep-12 08:00N 54°20' E 010°11'1 2.1
2019-Sep-12 07:27N 54°20' E 010°09'0 0.0
2019-Sep-12 06:57N 54°20' E 010°09'0 0.0
2019-Sep-12 06:30N 54°20' E 010°09'0 0.0
2019-Sep-12 05:48N 54°20' E 010°09'0 0.0
2019-Sep-12 05:30N 54°20' E 010°09'0 0.0
2019-Sep-12 05:00N 54°20' E 010°09'0 0.0
2019-Sep-12 04:30N 54°20' E 010°09'0 0.0
2019-Sep-12 03:51N 54°20' E 010°09'0 0.0
2019-Sep-12 03:21N 54°20' E 010°09'0 0.0
2019-Sep-12 02:51N 54°20' E 010°09'0 0.0
2019-Sep-12 02:21N 54°20' E 010°09'0 0.0
2019-Sep-12 01:51N 54°20' E 010°09'0 0.0
2019-Sep-12 01:24N 54°20' E 010°09'0 0.0
2019-Sep-12 01:00N 54°20' E 010°09'0 0.0
2019-Sep-12 00:30N 54°20' E 010°09'0 0.0
2019-Sep-12 00:00N 54°20' E 010°09'0 0.0
2019-Sep-11 23:30N 54°20' E 010°09'0 0.0
2019-Sep-11 23:00N 54°20' E 010°09'0 0.0
2019-Sep-11 22:30N 54°20' E 010°09'0 0.0
2019-Sep-11 22:00N 54°20' E 010°09'0 0.0
2019-Sep-11 21:30N 54°20' E 010°09'0 0.0
2019-Sep-11 21:00N 54°20' E 010°09'0 0.0
2019-Sep-11 20:30N 54°20' E 010°09'1 1.7
2019-Sep-11 20:00N 54°20' E 010°10'2 3.3
2019-Sep-11 19:30N 54°22' E 010°08'0 0.3
2019-Sep-11 19:00N 54°22' E 010°08'1 1.3
2019-Sep-11 18:30N 54°22' E 010°07'0 0.6
2019-Sep-11 18:01N 54°22' E 010°08'2 3.7
2019-Sep-11 17:30N 54°22' E 010°04'4 8.3
2019-Sep-11 17:00N 54°21' E 009°58'  
Track history (hours):
 
Tides and Currents Weather Stations Pressure Air Temp Water Temp Dewpoint Dewpoint Depression Visibility Wind Speed Wind Dir Waves Ship Positions

Oceanographic research ship Littorina (Germany)

Detailed information on ship capabilities available from University of Delaware's Ocean Information Center.

Last reported at 2019-Sep-21 16:51 UTC. Time now 2019-Sep-21 17:13 UTC.
Position N 54°20' E 010°11'.

Length 30 m; draft 2.9 m.

Type: Dredging. MMSI: 211214250.

Date/timePositionNaut miles runAvg speedWind from/ knotsBaromVisibWave heightAir tempDewpointWater temp
2019-Sep-21 16:51N 54°20' E 010°11'0 0.0
2019-Sep-21 16:30N 54°20' E 010°11'0 0.0
2019-Sep-21 16:00N 54°20' E 010°11'0 0.0
2019-Sep-21 15:27N 54°20' E 010°11'0 0.0
2019-Sep-21 15:00N 54°20' E 010°11'0 0.0
2019-Sep-21 14:30N 54°20' E 010°11'0 0.0
2019-Sep-21 14:00N 54°20' E 010°11'0 0.0
2019-Sep-21 13:30N 54°20' E 010°11'0 0.0
2019-Sep-21 13:00N 54°20' E 010°11'0 0.0
2019-Sep-21 12:30N 54°20' E 010°11'0 0.0
2019-Sep-21 12:00N 54°20' E 010°11'0 0.0
2019-Sep-21 11:27N 54°20' E 010°11'0 0.0
2019-Sep-21 11:00N 54°20' E 010°11'0 0.0
2019-Sep-21 10:30N 54°20' E 010°11'0 0.0
2019-Sep-21 09:57N 54°20' E 010°11'0 0.0
2019-Sep-21 09:30N 54°20' E 010°11'0 0.0
2019-Sep-21 09:00N 54°20' E 010°11'0 0.0
2019-Sep-21 08:30N 54°20' E 010°11'0 0.0
2019-Sep-21 08:00N 54°20' E 010°11'0 0.0
2019-Sep-21 07:30N 54°20' E 010°11'0 0.0
2019-Sep-21 07:00N 54°20' E 010°11'0 0.0
2019-Sep-21 06:30N 54°20' E 010°11'0 0.0
2019-Sep-21 06:00N 54°20' E 010°11'0 0.0
2019-Sep-21 05:30N 54°20' E 010°11'0 0.0
2019-Sep-21 05:00N 54°20' E 010°11'1 2.2
2019-Sep-21 04:30N 54°21' E 010°10'4 7.0
2019-Sep-21 04:00N 54°24' E 010°12'4 7.5
2019-Sep-21 03:30N 54°27' E 010°17'6 9.0
2019-Sep-21 02:51N 54°26' E 010°26'4 9.5
2019-Sep-21 02:24N 54°26' E 010°34'11 9.5
2019-Sep-21 01:17N 54°25' E 010°52'6 9.3
2019-Sep-21 00:40N 54°24' E 011°02'3 8.1
2019-Sep-21 00:18N 54°24' E 011°07'3 4.9
2019-Sep-20 23:47N 54°23' E 011°10'5 7.6
2019-Sep-20 23:08N 54°23' E 011°19'15 9.5
2019-Sep-20 21:31N 54°22' E 011°45'0 9.9
2019-Sep-20 21:30N 54°22' E 011°46'4 8.4
2019-Sep-20 21:00N 54°22' E 011°53'7 9.1
2019-Sep-20 20:17N 54°22' E 012°04'3 9.2
2019-Sep-20 19:59N 54°23' E 012°09'6 9.0
2019-Sep-20 19:17N 54°26' E 012°18'4 9.4
2019-Sep-20 18:53N 54°28' E 012°24'  
2019-Sep-14 16:00N 54°33' E 012°42'5 9.7
2019-Sep-14 15:30N 54°31' E 012°35'510.0
2019-Sep-14 15:00N 54°29' E 012°27'1510.3
2019-Sep-14 13:35N 54°22' E 012°04'110.4
2019-Sep-14 13:30N 54°22' E 012°03'611.0
2019-Sep-14 13:00N 54°23' E 011°53'41 9.7
2019-Sep-14 08:47N 54°26' E 010°43'3 9.7
2019-Sep-14 08:30N 54°27' E 010°39'5 9.7
2019-Sep-14 08:00N 54°28' E 010°31'5 9.1
2019-Sep-14 07:30N 54°28' E 010°23'5 9.6
2019-Sep-14 07:00N 54°26' E 010°15'5 9.3
2019-Sep-14 06:30N 54°22' E 010°11'3 5.3
2019-Sep-14 06:00N 54°20' E 010°11'0 0.0
2019-Sep-14 05:30N 54°20' E 010°11'0 0.0
2019-Sep-14 05:00N 54°20' E 010°11'0 0.0
2019-Sep-14 04:30N 54°20' E 010°11'0 0.0
2019-Sep-14 04:00N 54°20' E 010°11'0 0.0
2019-Sep-14 03:30N 54°20' E 010°11'0 0.0
2019-Sep-14 03:00N 54°20' E 010°11'0 0.0
2019-Sep-14 02:30N 54°20' E 010°11'0 0.0
2019-Sep-14 02:00N 54°20' E 010°11'0 0.0
2019-Sep-14 01:30N 54°20' E 010°11'0 0.0
2019-Sep-14 00:57N 54°20' E 010°11'0 0.0
2019-Sep-14 00:30N 54°20' E 010°11'0 0.0
2019-Sep-14 00:00N 54°20' E 010°11'0 0.0
2019-Sep-13 23:30N 54°20' E 010°11'0 0.0
2019-Sep-13 23:00N 54°20' E 010°11'0 0.0
2019-Sep-13 22:30N 54°20' E 010°11'0 0.0
2019-Sep-13 22:00N 54°20' E 010°11'0 0.0
2019-Sep-13 21:30N 54°20' E 010°11'0 0.0
2019-Sep-13 21:00N 54°20' E 010°11'0 0.0
2019-Sep-13 20:30N 54°20' E 010°11'0 0.0
2019-Sep-13 20:00N 54°20' E 010°11'0 0.0
2019-Sep-13 19:30N 54°20' E 010°11'0 0.0
2019-Sep-13 19:00N 54°20' E 010°11'0 0.0
2019-Sep-13 18:30N 54°20' E 010°11'0 0.0
2019-Sep-13 18:00N 54°20' E 010°11'0 0.0
2019-Sep-13 17:30N 54°20' E 010°11'0 0.0
2019-Sep-13 17:00N 54°20' E 010°11'0 0.0
2019-Sep-13 16:30N 54°20' E 010°11'0 0.0
2019-Sep-13 16:00N 54°20' E 010°11'0 0.0
2019-Sep-13 15:30N 54°20' E 010°11'0 0.0
2019-Sep-13 15:00N 54°20' E 010°11'0 0.0
2019-Sep-13 14:30N 54°20' E 010°11'0 0.0
2019-Sep-13 14:00N 54°20' E 010°11'0 0.0
2019-Sep-13 13:30N 54°20' E 010°11'0 0.0
2019-Sep-13 12:57N 54°20' E 010°11'0 0.0
2019-Sep-13 12:30N 54°20' E 010°11'0 0.0
2019-Sep-13 11:57N 54°20' E 010°11'0 0.0
2019-Sep-13 11:30N 54°20' E 010°11'0 0.0
2019-Sep-13 11:00N 54°20' E 010°11'0 0.0
2019-Sep-13 10:30N 54°20' E 010°11'0 0.0
2019-Sep-13 09:51N 54°20' E 010°11'0 0.0
2019-Sep-13 09:30N 54°20' E 010°11'0 0.0
2019-Sep-13 09:00N 54°20' E 010°11'0 0.0
2019-Sep-13 08:30N 54°20' E 010°11'0 0.0
2019-Sep-13 08:00N 54°20' E 010°11'0 0.0
2019-Sep-13 07:30N 54°20' E 010°11'1 2.7
2019-Sep-13 07:01N 54°21' E 010°10'1 2.0
2019-Sep-13 06:29N 54°22' E 010°09'0 0.0
2019-Sep-13 05:59N 54°22' E 010°09'2 4.6
2019-Sep-13 05:30N 54°20' E 010°10'0 0.5
2019-Sep-13 04:59N 54°20' E 010°11'0 0.0
2019-Sep-13 04:29N 54°20' E 010°11'0 0.0
2019-Sep-13 03:59N 54°20' E 010°11'0 0.0
2019-Sep-13 03:29N 54°20' E 010°11'0 0.0
2019-Sep-13 02:59N 54°20' E 010°11'0 0.0
2019-Sep-13 01:59N 54°20' E 010°11'0 0.0
2019-Sep-13 01:29N 54°20' E 010°11'0 0.0
2019-Sep-13 00:59N 54°20' E 010°11'0 0.0
2019-Sep-13 00:29N 54°20' E 010°11'0 0.0
2019-Sep-12 23:59N 54°20' E 010°11'0 0.0
2019-Sep-12 23:26N 54°20' E 010°11'0 0.0
2019-Sep-12 22:59N 54°20' E 010°11'0 0.0
2019-Sep-12 22:29N 54°20' E 010°11'0 0.0
2019-Sep-12 21:59N 54°20' E 010°11'0 0.0
2019-Sep-12 21:29N 54°20' E 010°11'0 0.0
2019-Sep-12 20:59N 54°20' E 010°11'0 0.0
2019-Sep-12 20:29N 54°20' E 010°11'0 0.0
2019-Sep-12 19:59N 54°20' E 010°11'0 0.0
2019-Sep-12 19:29N 54°20' E 010°11'0 0.0
2019-Sep-12 18:59N 54°20' E 010°11'0 0.0
2019-Sep-12 18:29N 54°20' E 010°11'0 0.0
2019-Sep-12 17:59N 54°20' E 010°11'0 0.0
2019-Sep-12 17:29N 54°20' E 010°11'0 0.0
2019-Sep-12 16:56N 54°20' E 010°11'0 0.0
2019-Sep-12 16:29N 54°20' E 010°11'0 0.0
2019-Sep-12 15:59N 54°20' E 010°11'0 0.0
2019-Sep-12 15:29N 54°20' E 010°11'0 0.0
2019-Sep-12 14:59N 54°20' E 010°11'0 0.0
2019-Sep-12 14:29N 54°20' E 010°11'0 0.0
2019-Sep-12 13:59N 54°20' E 010°11'0 0.0
2019-Sep-12 13:29N 54°20' E 010°11'0 0.0
2019-Sep-12 12:59N 54°20' E 010°11'0 0.0
2019-Sep-12 12:29N 54°20' E 010°11'0 0.0
2019-Sep-12 11:59N 54°20' E 010°11'0 0.0
2019-Sep-12 11:29N 54°20' E 010°11'0 0.0
2019-Sep-12 10:59N 54°20' E 010°11'0 0.0
2019-Sep-12 10:29N 54°20' E 010°11'0 0.0
2019-Sep-12 09:59N 54°20' E 010°11'0 0.0
2019-Sep-12 09:29N 54°20' E 010°11'0 0.0
2019-Sep-12 08:59N 54°20' E 010°11'0 0.0
2019-Sep-12 08:29N 54°20' E 010°11'0 0.0
2019-Sep-12 08:00N 54°20' E 010°11'1 2.1
2019-Sep-12 07:27N 54°20' E 010°09'0 0.0
2019-Sep-12 06:57N 54°20' E 010°09'0 0.0
2019-Sep-12 06:30N 54°20' E 010°09'0 0.0
2019-Sep-12 05:48N 54°20' E 010°09'0 0.0
2019-Sep-12 05:30N 54°20' E 010°09'0 0.0
2019-Sep-12 05:00N 54°20' E 010°09'0 0.0
2019-Sep-12 04:30N 54°20' E 010°09'0 0.0
2019-Sep-12 03:51N 54°20' E 010°09'0 0.0
2019-Sep-12 03:21N 54°20' E 010°09'0 0.0
2019-Sep-12 02:51N 54°20' E 010°09'0 0.0
2019-Sep-12 02:21N 54°20' E 010°09'0 0.0
2019-Sep-12 01:51N 54°20' E 010°09'0 0.0
2019-Sep-12 01:24N 54°20' E 010°09'0 0.0
2019-Sep-12 01:00N 54°20' E 010°09'0 0.0
2019-Sep-12 00:30N 54°20' E 010°09'0 0.0
2019-Sep-12 00:00N 54°20' E 010°09'0 0.0
2019-Sep-11 23:30N 54°20' E 010°09'0 0.0
2019-Sep-11 23:00N 54°20' E 010°09'0 0.0
2019-Sep-11 22:30N 54°20' E 010°09'0 0.0
2019-Sep-11 22:00N 54°20' E 010°09'0 0.0
2019-Sep-11 21:30N 54°20' E 010°09'0 0.0
2019-Sep-11 21:00N 54°20' E 010°09'0 0.0
2019-Sep-11 20:30N 54°20' E 010°09'1 1.7
2019-Sep-11 20:00N 54°20' E 010°10'2 3.3
2019-Sep-11 19:30N 54°22' E 010°08'0 0.3
2019-Sep-11 19:00N 54°22' E 010°08'1 1.3
2019-Sep-11 18:30N 54°22' E 010°07'0 0.6
2019-Sep-11 18:01N 54°22' E 010°08'2 3.7
2019-Sep-11 17:30N 54°22' E 010°04'4 8.3
2019-Sep-11 17:00N 54°21' E 009°58'  

Dump ship's entire track history